Time;durP1;ratioP1;P1;durP2;ratioP2;P2;SDS_P1;SDS_P2;PMS_P1;PMS_P2;Temp;Humidity;BMP_temperature;BMP_pressure;BME280_temperature;BME280_humidity;BME280_pressure;Samples;Min_cycle;Max_cycle;Signal;HPM_P1;HPM_P2
2022/10/03 16:32:48;;;;;;;60.20;50.10;;;;;;;22.49;62.52;99576.73;115083;1201;544123;-55
2022/10/03 16:35:36;;;;;;;38.00;14.40;;;;;;;22.67;62.03;99577.77;116660;1191;22324;-55
2022/10/03 16:38:16;;;;;;;40.10;12.00;;;;;;;22.78;61.61;99579.84;116491;1189;21873;-55
2022/10/03 16:40:51;;;;;;;28.30;10.40;;;;;;;22.83;61.44;99579.04;116550;1189;21878;-55
2022/10/03 16:43:18;;;;;;;35.20;13.70;;;;;;;22.78;61.53;99577.31;116538;1188;22330;-55
2022/10/03 16:45:45;;;;;;;39.50;12.50;;;;;;;22.84;61.44;99580.08;116383;1189;21944;-56
2022/10/03 16:51:08;;;;;;;25.00;8.80;;;;;;;22.95;61.06;99578.91;116350;1189;23455;-56
2022/10/03 16:53:35;;;;;;;27.50;11.00;;;;;;;23.00;60.92;99580.98;116496;1189;21870;-56
2022/10/03 16:56:05;;;;;;;31.10;12.10;;;;;;;23.06;60.63;99583.58;116627;1191;22998;-56
2022/10/03 16:58:38;;;;;;;25.50;9.80;;;;;;;23.08;60.67;99585.56;116630;1192;22901;-56
2022/10/03 17:01:13;;;;;;;27.50;10.40;;;;;;;23.11;60.43;99587.13;116834;1186;21856;-56
2022/10/03 17:03:58;;;;;;;35.50;11.40;;;;;;;23.12;60.40;99589.21;116978;1185;23599;-56
2022/10/03 17:06:30;;;;;;;26.70;9.50;;;;;;;23.14;60.26;99592.12;116914;1186;21857;-56
2022/10/03 17:08:59;;;;;;;25.90;11.00;;;;;;;23.16;60.21;99594.47;116803;1185;22909;-56
2022/10/03 17:11:27;;;;;;;25.20;9.30;;;;;;;23.18;60.06;99595.20;116930;1186;22964;-56
2022/10/03 17:13:58;;;;;;;20.00;11.40;;;;;;;23.23;60.09;99593.96;116969;1186;21851;-56
2022/10/03 17:16:26;;;;;;;23.20;10.60;;;;;;;23.24;59.98;99592.41;117231;1181;21872;-60
2022/10/03 17:18:59;;;;;;;24.50;12.00;;;;;;;23.25;60.02;99591.83;117057;1182;21931;-60
2022/10/03 17:21:28;;;;;;;22.70;10.70;;;;;;;23.27;59.84;99590.08;117227;1182;22086;-60
2022/10/03 17:24:06;;;;;;;18.10;11.70;;;;;;;23.30;59.76;99591.05;117039;1183;24166;-59
2022/10/03 17:26:34;;;;;;;19.40;10.10;;;;;;;23.34;59.75;99590.59;117128;1182;23803;-59
2022/10/03 17:29:04;;;;;;;19.70;10.20;;;;;;;23.37;59.48;99586.96;117282;1183;23702;-60
2022/10/03 17:31:45;;;;;;;21.00;10.90;;;;;;;23.37;59.36;99586.02;117192;1182;22914;-59
2022/10/03 17:34:19;;;;;;;20.70;12.60;;;;;;;23.36;59.37;99583.25;117238;1186;21849;-52
2022/10/03 17:37:05;;;;;;;19.30;10.00;;;;;;;23.39;59.40;99583.42;117243;1186;21966;-53
2022/10/03 17:39:38;;;;;;;19.50;10.30;;;;;;;23.40;59.31;99579.54;117117;1186;23657;-52
2022/10/03 17:42:27;;;;;;;16.60;10.80;;;;;;;23.41;59.17;99580.90;117254;1182;21899;-52
2022/10/03 17:45:01;;;;;;;19.90;10.40;;;;;;;23.42;59.19;99578.14;117254;1186;21867;-52
2022/10/03 17:47:54;;;;;;;18.10;8.90;;;;;;;23.43;59.25;99578.05;117152;1182;21910;-52
2022/10/03 17:50:47;;;;;;;16.20;7.40;;;;;;;23.43;59.11;99580.56;117258;1183;21851;-53
2022/10/03 17:53:18;;;;;;;21.70;6.90;;;;;;;23.45;58.87;99582.34;117114;1182;23473;-60
2022/10/03 17:55:45;;;;;;;15.80;8.10;;;;;;;23.45;58.96;99586.86;117390;1181;21995;-59
2022/10/03 17:58:18;;;;;;;14.10;12.40;;;;;;;23.46;59.02;99587.81;116800;1186;22810;-60
2022/10/03 18:00:44;;;;;;;15.50;9.10;;;;;;;23.49;58.94;99585.48;116878;1189;22822;-60
2022/10/03 18:03:31;;;;;;;16.30;13.50;;;;;;;23.44;58.89;99580.46;116921;1185;21867;-60
2022/10/03 18:06:02;;;;;;;13.60;9.50;;;;;;;23.51;58.81;99580.13;116937;1184;22920;-59
2022/10/03 18:08:30;;;;;;;15.20;9.30;;;;;;;23.60;58.48;99581.01;116885;1183;22973;-60
2022/10/03 18:10:58;;;;;;;14.20;12.90;;;;;;;23.71;58.24;99586.25;116874;1186;22064;-59
2022/10/03 18:13:41;;;;;;;13.70;12.30;;;;;;;23.71;58.10;99587.32;116702;1186;23564;-59
2022/10/03 18:16:36;;;;;;;13.20;9.40;;;;;;;23.66;58.31;99591.82;116676;1190;24259;-59
2022/10/03 18:19:38;;;;;;;15.50;8.10;;;;;;;23.63;58.41;99593.48;116881;1184;21929;-59
2022/10/03 18:22:15;;;;;;;9.80;7.30;;;;;;;23.62;58.54;99600.73;116498;1189;21865;-59
2022/10/03 18:24:42;;;;;;;15.00;10.90;;;;;;;23.63;58.31;99603.34;116351;1191;22656;-60
2022/10/03 18:27:50;;;;;;;12.50;10.00;;;;;;;23.63;58.24;99602.27;116279;1193;23622;-61
2022/10/03 18:30:50;;;;;;;9.30;6.80;;;;;;;23.60;58.39;99602.66;116053;1192;21897;-61
2022/10/03 18:35:21;;;;;;;12.40;8.20;;;;;;;23.64;58.21;99596.45;114972;1202;544287;-59
2022/10/03 18:37:54;;;;;;;15.60;10.40;;;;;;;23.53;58.40;99599.10;116473;1188;29238;-55
2022/10/03 18:40:26;;;;;;;17.40;9.80;;;;;;;23.52;58.31;99599.88;116628;1188;24300;-56
2022/10/03 18:46:20;;;;;;;15.00;3.50;;;;;;;22.91;60.93;99606.22;115796;1195;541780;-67
2022/10/03 18:49:02;;;;;;;13.70;3.80;;;;;;;23.76;58.37;99603.22;117345;1183;23467;-67
2022/10/03 18:51:57;;;;;;;16.90;2.90;;;;;;;23.88;58.09;99613.36;117358;1183;21901;-62
2022/10/03 18:54:55;;;;;;;15.60;2.80;;;;;;;23.77;58.22;99616.24;117398;1187;22642;-61
2022/10/03 18:57:25;;;;;;;12.80;2.40;;;;;;;23.76;58.23;99619.34;117401;1182;23477;-60
2022/10/03 19:00:20;;;;;;;16.40;2.60;;;;;;;23.75;58.14;99625.27;117286;1183;23458;-61
2022/10/03 19:02:54;;;;;;;14.20;3.00;;;;;;;23.74;58.08;99617.90;117422;1183;21847;-61
2022/10/03 19:05:42;;;;;;;12.60;2.70;;;;;;;23.71;58.22;99615.80;117395;1182;23496;-61
2022/10/03 19:08:11;;;;;;;9.60;2.70;;;;;;;23.70;58.08;99611.09;117432;1187;22540;-61
2022/10/03 19:10:50;;;;;;;9.70;2.50;;;;;;;23.71;58.04;99610.59;117385;1183;23484;-60
2022/10/03 19:13:43;;;;;;;11.10;2.60;;;;;;;23.77;57.82;99608.71;117209;1188;23448;-60
2022/10/03 19:16:23;;;;;;;8.80;2.10;;;;;;;23.88;57.64;99608.19;117268;1189;23467;-61
2022/10/03 19:18:50;;;;;;;11.80;2.70;;;;;;;23.93;57.40;99610.48;117459;1183;23472;-60
2022/10/03 19:21:18;;;;;;;13.60;2.80;;;;;;;23.92;57.28;99610.90;117358;1183;23515;-60
2022/10/03 19:23:53;;;;;;;9.30;2.40;;;;;;;23.95;57.28;99605.09;117388;1186;21867;-60
2022/10/03 19:26:23;;;;;;;8.70;2.20;;;;;;;24.00;57.06;99598.49;117393;1183;23467;-60
2022/10/03 19:28:52;;;;;;;6.30;2.10;;;;;;;23.98;57.13;99597.02;117357;1182;23541;-60
2022/10/03 19:31:34;;;;;;;6.50;1.90;;;;;;;23.92;57.22;99599.10;117318;1188;23497;-61
2022/10/03 19:34:16;;;;;;;10.20;2.60;;;;;;;23.96;57.10;99606.13;117391;1182;23493;-61
2022/10/03 19:36:43;;;;;;;6.70;2.20;;;;;;;24.02;56.83;99609.27;117170;1185;23484;-63
2022/10/03 19:39:13;;;;;;;7.70;2.00;;;;;;;24.05;56.83;99614.70;116906;1185;23472;-63
2022/10/03 19:41:52;;;;;;;5.90;2.00;;;;;;;24.04;56.97;99621.46;117113;1185;21882;-64
2022/10/03 19:44:22;;;;;;;6.40;1.90;;;;;;;24.04;56.92;99622.39;117143;1185;23552;-64
2022/10/03 19:46:57;;;;;;;8.80;2.00;;;;;;;24.00;57.07;99622.63;117063;1185;23011;-64
2022/10/03 19:49:40;;;;;;;6.60;2.40;;;;;;;24.00;56.89;99624.62;117019;1185;23471;-63
2022/10/03 19:52:15;;;;;;;10.30;1.80;;;;;;;24.05;56.81;99621.33;117085;1189;23086;-62
2022/10/03 19:54:57;;;;;;;5.20;1.50;;;;;;;24.10;56.68;99622.08;117157;1189;23471;-62
2022/10/03 19:57:36;;;;;;;5.30;2.00;;;;;;;24.13;56.42;99618.43;116945;1191;22000;-63
2022/10/03 20:00:14;;;;;;;7.40;2.10;;;;;;;24.17;56.26;99617.54;117087;1186;22312;-63
2022/10/03 20:02:42;;;;;;;6.10;2.10;;;;;;;24.17;56.36;99622.53;117145;1186;23518;-61
2022/10/03 20:05:17;;;;;;;8.60;1.90;;;;;;;24.19;56.39;99620.97;117114;1185;22922;-61
2022/10/03 20:08:15;;;;;;;6.20;2.20;;;;;;;24.19;56.17;99620.08;117170;1188;23632;-61
2022/10/03 20:11:05;;;;;;;7.20;1.70;;;;;;;24.18;56.21;99613.85;117456;1186;21984;-61
2022/10/03 20:13:32;;;;;;;6.00;1.80;;;;;;;24.16;56.28;99612.98;117557;1182;23471;-61
2022/10/03 20:15:59;;;;;;;10.00;2.10;;;;;;;24.19;56.21;99610.59;117647;1181;23539;-61
2022/10/03 20:18:33;;;;;;;6.30;2.50;;;;;;;24.22;56.02;99609.48;117322;1185;23451;-61
2022/10/03 20:21:02;;;;;;;8.50;2.00;;;;;;;24.20;56.09;99607.42;117653;1186;23442;-61
2022/10/03 20:23:31;;;;;;;6.20;2.10;;;;;;;24.22;56.02;99607.66;117458;1186;23442;-61
2022/10/03 20:26:01;;;;;;;7.00;2.10;;;;;;;24.18;56.03;99604.71;117572;1186;23557;-60
2022/10/03 20:28:39;;;;;;;4.60;1.40;;;;;;;24.17;56.12;99604.10;117454;1186;21911;-60
2022/10/03 20:31:07;;;;;;;6.40;2.10;;;;;;;24.19;56.16;99604.24;117089;1188;23445;-59
2022/10/03 20:36:37;;;;;;;13.10;2.40;;;;;;;23.25;58.98;99601.18;115342;1199;543727;-53
2022/10/03 20:39:05;;;;;;;7.90;2.30;;;;;;;24.14;56.55;99597.73;116536;1188;21987;-53
2022/10/03 20:41:38;;;;;;;5.10;1.60;;;;;;;24.28;56.10;99594.96;116665;1191;23481;-53
2022/10/03 20:44:21;;;;;;;10.10;2.40;;;;;;;24.30;56.10;99597.69;117045;1187;23468;-54
2022/10/03 20:46:53;;;;;;;8.00;1.70;;;;;;;24.33;56.00;99595.09;117283;1185;23445;-53
2022/10/03 20:49:39;;;;;;;6.60;1.50;;;;;;;24.34;55.91;99598.77;117264;1182;23480;-54
2022/10/03 20:52:07;;;;;;;5.80;1.70;;;;;;;24.39;55.62;99597.67;117213;1185;23443;-53
2022/10/03 20:54:57;;;;;;;6.40;1.80;;;;;;;24.25;56.02;99596.13;117171;1182;23542;-54
2022/10/03 20:57:55;;;;;;;5.90;1.20;;;;;;;24.16;56.21;99601.48;117290;1182;21889;-55
2022/10/03 21:00:23;;;;;;;5.00;1.70;;;;;;;24.13;56.16;99600.46;117212;1187;34126;-55
2022/10/03 21:02:55;;;;;;;4.80;1.50;;;;;;;24.17;56.15;99603.20;117043;1185;23446;-55
2022/10/03 21:05:23;;;;;;;4.30;1.20;;;;;;;24.14;56.03;99602.71;117164;1182;23484;-55
2022/10/03 21:08:20;;;;;;;5.00;1.70;;;;;;;24.05;56.28;99598.21;117045;1182;23446;-55
2022/10/03 21:11:01;;;;;;;9.10;1.90;;;;;;;23.97;56.47;99597.41;117103;1186;23582;-55
2022/10/03 21:13:35;;;;;;;5.30;1.80;;;;;;;23.94;56.44;99598.79;116967;1182;23467;-55
2022/10/03 21:16:03;;;;;;;5.40;1.50;;;;;;;23.87;56.68;99591.64;116990;1182;23455;-54
2022/10/03 21:18:35;;;;;;;4.10;1.40;;;;;;;23.81;56.81;99597.11;117020;1187;23448;-55
2022/10/03 21:21:09;;;;;;;5.80;1.30;;;;;;;23.89;56.55;99605.23;117354;1185;21854;-55
2022/10/03 21:24:15;;;;;;;6.10;1.50;;;;;;;23.95;56.45;99607.47;117425;1181;23483;-55
2022/10/03 21:27:04;;;;;;;5.10;1.50;;;;;;;23.86;56.58;99608.33;116729;1186;23593;-55
2022/10/03 21:29:33;;;;;;;5.80;1.40;;;;;;;23.87;56.63;99608.27;116783;1190;23476;-55
2022/10/03 21:32:42;;;;;;;4.50;1.70;;;;;;;23.88;56.47;99612.65;116666;1191;23453;-55
2022/10/03 21:35:28;;;;;;;3.30;1.30;;;;;;;23.88;56.43;99609.27;116304;1193;23458;-55
2022/10/03 21:37:58;;;;;;;4.50;1.30;;;;;;;23.74;56.66;99613.91;116287;1193;23535;-55
2022/10/03 21:40:37;;;;;;;2.90;1.00;;;;;;;23.72;56.77;99612.11;116321;1189;23455;-55
2022/10/03 21:43:31;;;;;;;4.70;1.40;;;;;;;23.77;56.62;99613.17;116390;1190;23472;-54
2022/10/03 21:46:23;;;;;;;4.30;1.90;;;;;;;23.75;56.80;99614.23;116396;1193;23501;-54
2022/10/03 21:49:13;;;;;;;5.20;1.30;;;;;;;23.82;56.48;99603.09;116439;1195;23460;-54
2022/10/03 21:51:59;;;;;;;4.50;1.60;;;;;;;23.86;56.42;99593.13;116379;1191;23458;-54
2022/10/03 21:54:31;;;;;;;3.20;1.30;;;;;;;23.86;56.30;99594.34;116483;1190;23483;-55
2022/10/03 21:57:13;;;;;;;4.50;1.20;;;;;;;23.87;56.43;99600.77;116535;1190;23589;-55
2022/10/03 22:00:09;;;;;;;4.40;1.20;;;;;;;23.86;56.23;99600.98;116552;1190;23589;-55
2022/10/03 22:02:45;;;;;;;4.10;1.20;;;;;;;23.87;56.27;99599.48;116500;1190;23488;-55
2022/10/03 22:05:34;;;;;;;5.80;1.30;;;;;;;23.83;56.46;99598.02;116584;1187;23551;-55
2022/10/03 22:08:34;;;;;;;3.50;1.50;;;;;;;23.79;56.44;99596.95;116659;1187;23464;-54
2022/10/03 22:11:48;;;;;;;3.00;1.00;;;;;;;23.82;56.48;99605.11;116707;1187;23446;-55
2022/10/03 22:14:20;;;;;;;4.10;1.50;;;;;;;23.87;56.40;99609.35;116711;1186;23520;-55
2022/10/03 22:17:03;;;;;;;3.00;1.10;;;;;;;23.97;56.23;99608.76;116751;1186;23910;-55
2022/10/03 22:19:51;;;;;;;2.30;1.30;;;;;;;23.92;56.19;99607.90;116645;1187;23462;-55
2022/10/03 22:22:56;;;;;;;2.90;1.00;;;;;;;23.92;56.34;99610.39;116714;1186;21881;-55
2022/10/03 22:25:29;;;;;;;2.90;0.80;;;;;;;23.91;56.04;99609.70;116500;1194;23460;-55
2022/10/03 22:28:24;;;;;;;4.00;1.10;;;;;;;23.92;56.02;99613.39;116367;1189;23526;-54
2022/10/03 22:31:12;;;;;;;1.90;1.00;;;;;;;23.93;55.98;99614.10;116362;1190;23461;-54
2022/10/03 22:34:17;;;;;;;2.50;1.20;;;;;;;23.94;55.93;99613.48;116465;1193;23501;-53
2022/10/03 22:36:45;;;;;;;4.30;1.20;;;;;;;23.94;55.90;99613.61;116477;1189;23476;-54
2022/10/03 22:39:14;;;;;;;3.70;1.00;;;;;;;23.96;55.89;99611.17;116560;1189;23456;-55
2022/10/03 22:41:42;;;;;;;3.50;1.20;;;;;;;23.95;55.87;99609.09;116507;1193;23555;-53
2022/10/03 22:44:10;;;;;;;3.70;1.40;;;;;;;23.95;55.94;99605.45;116582;1189;23455;-53
2022/10/03 22:46:39;;;;;;;1.70;0.80;;;;;;;23.98;55.78;99605.40;116264;1191;21870;-53
2022/10/03 22:49:12;;;;;;;2.80;0.80;;;;;;;24.07;55.68;99605.79;116596;1189;23475;-53
2022/10/03 22:51:39;;;;;;;2.90;1.10;;;;;;;24.21;55.27;99603.83;116681;1188;22928;-54
2022/10/03 22:54:12;;;;;;;4.60;1.40;;;;;;;24.19;55.39;99603.78;116569;1189;23450;-53
2022/10/03 22:56:45;;;;;;;3.40;1.10;;;;;;;24.17;55.47;99606.64;116751;1186;23488;-54
2022/10/03 22:59:23;;;;;;;3.20;1.00;;;;;;;24.16;55.42;99609.19;116777;1187;21920;-54
2022/10/03 23:01:53;;;;;;;2.30;0.90;;;;;;;24.18;55.46;99610.66;117082;1188;22922;-53
2022/10/03 23:04:35;;;;;;;2.10;1.00;;;;;;;24.21;55.36;99615.28;117111;1182;21855;-54
2022/10/03 23:07:14;;;;;;;2.20;1.00;;;;;;;24.23;55.19;99618.70;117102;1188;23551;-54
2022/10/03 23:09:50;;;;;;;3.20;1.10;;;;;;;24.21;55.18;99621.66;117045;1185;23468;-53
2022/10/03 23:12:17;;;;;;;18.70;2.00;;;;;;;24.20;55.18;99625.34;117002;1183;23453;-53
2022/10/03 23:14:47;;;;;;;3.20;1.20;;;;;;;24.11;55.40;99624.64;117023;1182;23465;-54
2022/10/03 23:17:45;;;;;;;2.70;1.10;;;;;;;24.12;55.31;99625.79;117061;1183;24233;-53
2022/10/03 23:20:50;;;;;;;2.50;0.90;;;;;;;24.17;55.18;99620.42;117043;1188;23446;-54
2022/10/03 23:23:27;;;;;;;2.00;1.10;;;;;;;24.17;55.32;99619.89;116969;1183;23469;-53
2022/10/03 23:26:32;;;;;;;1.80;0.90;;;;;;;24.13;55.28;99620.21;117102;1188;23448;-54
2022/10/03 23:29:05;;;;;;;2.50;1.00;;;;;;;24.14;55.22;99619.55;117015;1182;23503;-54
2022/10/03 23:31:52;;;;;;;3.60;0.90;;;;;;;24.15;55.25;99620.38;117056;1183;21863;-53
2022/10/03 23:34:37;;;;;;;2.40;1.00;;;;;;;24.18;55.15;99618.70;117102;1182;21865;-54
2022/10/03 23:37:11;;;;;;;1.90;0.90;;;;;;;24.23;54.99;99617.10;117192;1182;23469;-54
2022/10/03 23:39:54;;;;;;;4.10;0.90;;;;;;;24.21;55.03;99618.85;117105;1182;23512;-54
2022/10/03 23:42:44;;;;;;;2.40;1.00;;;;;;;24.19;54.89;99621.14;117067;1187;23449;-54
2022/10/03 23:45:14;;;;;;;;;;;;;;;24.19;54.94;99620.45;116643;1187;23557;-54
2022/10/03 23:47:50;;;;;;;2.00;0.90;;;;;;;24.13;55.18;99622.02;116707;1188;23485;-53
2022/10/03 23:50:21;;;;;;;3.00;1.30;;;;;;;24.04;55.31;99626.44;116735;1186;23465;-54
2022/10/03 23:52:49;;;;;;;;;;;;;;;23.92;55.62;99629.17;116769;1185;23423;-54
2022/10/03 23:55:21;;;;;;;1.30;0.80;;;;;;;23.86;55.57;99627.69;116626;1191;23458;-53
2022/10/03 23:57:48;;;;;;;2.30;0.90;;;;;;;23.85;55.74;99626.34;116577;1194;22027;-54
